Terminal Aerodrome Forecast
Issued by NWS Sioux Falls, SD

Home | Current Version | Previous Version | Text Only | Print | Product List | Glossary Off
Versions: 1 2 3 4 5 6 7 8 9 10 11 12 13 14 15 16 17 18 19 20 21 22 23 24 25 26

000
FTUS43 KFSD 202000 AAA
TAFFSD
TAF AMD
KFSD 202010Z 2020/2118 19012KT P6SM BKN020
     FM210130 17010KT P6SM FEW020
     FM211000 15007KT 5SM BR SCT004 BKN008
     FM211500 16008KT P6SM SCT008 BKN015=

USA.gov is the U.S. government's official web portal to all federal, state and local government web resources and services.